sensor_id;sensor_type;location;lat;lon;timestamp;pressure;altitude;pressure_sealevel;temperature;humidity
55733;BME280;41637;52.364;9.910;2023-06-10T00:00:47;100986.96;;;16.04;61.65
55733;BME280;41637;52.364;9.910;2023-06-10T00:03:13;100986.38;;;15.99;62.04
55733;BME280;41637;52.364;9.910;2023-06-10T00:05:40;100988.42;;;15.93;62.38
55733;BME280;41637;52.364;9.910;2023-06-10T00:08:07;100988.48;;;15.87;62.77
55733;BME280;41637;52.364;9.910;2023-06-10T00:10:35;100991.13;;;15.81;63.10
55733;BME280;41637;52.364;9.910;2023-06-10T00:13:03;100993.24;;;15.73;63.48
55733;BME280;41637;52.364;9.910;2023-06-10T00:15:30;100991.21;;;15.65;64.06
55733;BME280;41637;52.364;9.910;2023-06-10T00:17:57;100995.77;;;15.58;64.43
55733;BME280;41637;52.364;9.910;2023-06-10T00:20:24;100993.73;;;15.51;65.05
55733;BME280;41637;52.364;9.910;2023-06-10T00:22:52;100995.59;;;15.46;65.55
55733;BME280;41637;52.364;9.910;2023-06-10T00:25:18;100994.64;;;15.42;65.70
55733;BME280;41637;52.364;9.910;2023-06-10T00:27:45;100994.56;;;15.38;65.98
55733;BME280;41637;52.364;9.910;2023-06-10T00:30:12;100998.66;;;15.34;66.43
55733;BME280;41637;52.364;9.910;2023-06-10T00:32:39;100995.37;;;15.29;67.18
55733;BME280;41637;52.364;9.910;2023-06-10T00:35:06;100996.16;;;15.24;67.39
55733;BME280;41637;52.364;9.910;2023-06-10T00:37:33;100997.50;;;15.19;68.27
55733;BME280;41637;52.364;9.910;2023-06-10T00:40:04;101001.29;;;15.15;68.61
55733;BME280;41637;52.364;9.910;2023-06-10T00:42:31;101003.52;;;15.10;68.66
55733;BME280;41637;52.364;9.910;2023-06-10T00:44:57;101008.21;;;15.05;69.27
55733;BME280;41637;52.364;9.910;2023-06-10T00:47:25;101007.50;;;14.99;69.83
55733;BME280;41637;52.364;9.910;2023-06-10T00:49:52;101005.37;;;14.95;70.33
55733;BME280;41637;52.364;9.910;2023-06-10T00:52:21;101004.14;;;14.91;71.07
55733;BME280;41637;52.364;9.910;2023-06-10T00:54:48;101001.70;;;14.86;71.68
55733;BME280;41637;52.364;9.910;2023-06-10T00:57:15;101000.48;;;14.82;71.89
55733;BME280;41637;52.364;9.910;2023-06-10T00:59:47;101007.56;;;14.78;72.12
55733;BME280;41637;52.364;9.910;2023-06-10T01:02:14;101008.60;;;14.74;72.30
55733;BME280;41637;52.364;9.910;2023-06-10T01:04:40;101009.80;;;14.69;72.52
55733;BME280;41637;52.364;9.910;2023-06-10T01:07:32;101010.25;;;14.64;72.72
55733;BME280;41637;52.364;9.910;2023-06-10T01:10:15;101011.61;;;14.59;72.67
55733;BME280;41637;52.364;9.910;2023-06-10T01:12:58;101005.53;;;14.53;73.00
55733;BME280;41637;52.364;9.910;2023-06-10T01:15:26;101010.92;;;14.47;73.05
55733;BME280;41637;52.364;9.910;2023-06-10T01:18:02;101015.55;;;14.41;73.82
55733;BME280;41637;52.364;9.910;2023-06-10T01:20:32;101012.17;;;14.36;74.97
55733;BME280;41637;52.364;9.910;2023-06-10T01:23:00;101012.08;;;14.31;75.70
55733;BME280;41637;52.364;9.910;2023-06-10T01:25:29;101013.27;;;14.25;76.49
55733;BME280;41637;52.364;9.910;2023-06-10T01:28:07;101018.02;;;14.20;76.47
55733;BME280;41637;52.364;9.910;2023-06-10T01:30:43;101016.78;;;14.14;76.84
55733;BME280;41637;52.364;9.910;2023-06-10T01:33:13;101013.59;;;14.08;77.39
55733;BME280;41637;52.364;9.910;2023-06-10T01:35:43;101007.47;;;14.03;77.69
55733;BME280;41637;52.364;9.910;2023-06-10T01:38:12;101003.77;;;13.97;78.32
55733;BME280;41637;52.364;9.910;2023-06-10T01:40:41;101006.05;;;13.90;78.49
55733;BME280;41637;52.364;9.910;2023-06-10T01:43:08;101007.48;;;13.83;78.97
55733;BME280;41637;52.364;9.910;2023-06-10T01:45:35;101009.36;;;13.76;79.73
55733;BME280;41637;52.364;9.910;2023-06-10T01:48:01;101012.86;;;13.70;80.09
55733;BME280;41637;52.364;9.910;2023-06-10T01:50:28;101008.20;;;13.64;80.31
55733;BME280;41637;52.364;9.910;2023-06-10T01:52:54;101009.59;;;13.60;80.84
55733;BME280;41637;52.364;9.910;2023-06-10T01:55:21;101011.05;;;13.55;81.12
55733;BME280;41637;52.364;9.910;2023-06-10T01:57:47;101009.08;;;13.51;81.54
55733;BME280;41637;52.364;9.910;2023-06-10T02:00:14;101011.39;;;13.46;81.59
55733;BME280;41637;52.364;9.910;2023-06-10T02:02:41;101019.52;;;13.41;82.22
55733;BME280;41637;52.364;9.910;2023-06-10T02:05:08;101025.24;;;13.36;82.25
55733;BME280;41637;52.364;9.910;2023-06-10T02:07:35;101019.45;;;13.31;82.38
55733;BME280;41637;52.364;9.910;2023-06-10T02:10:02;101020.91;;;13.26;82.71
55733;BME280;41637;52.364;9.910;2023-06-10T02:12:29;101023.03;;;13.20;83.05
55733;BME280;41637;52.364;9.910;2023-06-10T02:14:56;101025.52;;;13.16;83.12
55733;BME280;41637;52.364;9.910;2023-06-10T02:17:22;101025.16;;;13.12;83.53
55733;BME280;41637;52.364;9.910;2023-06-10T02:19:49;101025.91;;;13.06;84.51
55733;BME280;41637;52.364;9.910;2023-06-10T02:22:22;101031.83;;;13.01;84.76
55733;BME280;41637;52.364;9.910;2023-06-10T02:24:49;101037.16;;;12.97;85.11
55733;BME280;41637;52.364;9.910;2023-06-10T02:27:16;101036.29;;;12.92;85.78
55733;BME280;41637;52.364;9.910;2023-06-10T02:29:43;101042.88;;;12.88;86.26
55733;BME280;41637;52.364;9.910;2023-06-10T02:32:10;101046.91;;;12.84;86.68
55733;BME280;41637;52.364;9.910;2023-06-10T02:34:37;101049.81;;;12.80;86.94
55733;BME280;41637;52.364;9.910;2023-06-10T02:37:04;101048.41;;;12.77;87.31
55733;BME280;41637;52.364;9.910;2023-06-10T02:39:30;101047.12;;;12.73;87.88
55733;BME280;41637;52.364;9.910;2023-06-10T02:41:57;101045.41;;;12.69;88.34
55733;BME280;41637;52.364;9.910;2023-06-10T02:44:23;101048.09;;;12.66;88.72
55733;BME280;41637;52.364;9.910;2023-06-10T02:46:50;101044.98;;;12.62;89.05
55733;BME280;41637;52.364;9.910;2023-06-10T02:49:16;101050.98;;;12.58;89.46
55733;BME280;41637;52.364;9.910;2023-06-10T02:51:44;101055.38;;;12.55;89.72
55733;BME280;41637;52.364;9.910;2023-06-10T02:54:10;101052.05;;;12.52;89.79
55733;BME280;41637;52.364;9.910;2023-06-10T02:56:37;101052.02;;;12.48;90.43
55733;BME280;41637;52.364;9.910;2023-06-10T02:59:03;101053.70;;;12.45;91.02
55733;BME280;41637;52.364;9.910;2023-06-10T03:01:30;101056.65;;;12.43;91.17
55733;BME280;41637;52.364;9.910;2023-06-10T03:03:58;101054.92;;;12.39;91.54
55733;BME280;41637;52.364;9.910;2023-06-10T03:06:25;101053.05;;;12.37;91.58
55733;BME280;41637;52.364;9.910;2023-06-10T03:08:52;101055.95;;;12.35;91.75
55733;BME280;41637;52.364;9.910;2023-06-10T03:11:19;101060.33;;;12.33;92.12
55733;BME280;41637;52.364;9.910;2023-06-10T03:13:46;101060.14;;;12.30;92.52
55733;BME280;41637;52.364;9.910;2023-06-10T03:16:12;101059.72;;;12.27;92.78
55733;BME280;41637;52.364;9.910;2023-06-10T03:18:39;101058.95;;;12.24;92.73
55733;BME280;41637;52.364;9.910;2023-06-10T03:21:06;101057.45;;;12.23;92.75
55733;BME280;41637;52.364;9.910;2023-06-10T03:23:32;101056.96;;;12.21;93.40
55733;BME280;41637;52.364;9.910;2023-06-10T03:25:59;101065.52;;;12.19;93.39
55733;BME280;41637;52.364;9.910;2023-06-10T03:28:26;101060.72;;;12.18;93.69
55733;BME280;41637;52.364;9.910;2023-06-10T03:30:53;101059.95;;;12.17;93.78
55733;BME280;41637;52.364;9.910;2023-06-10T03:33:19;101065.84;;;12.17;94.12
55733;BME280;41637;52.364;9.910;2023-06-10T03:35:46;101057.52;;;12.16;94.04
55733;BME280;41637;52.364;9.910;2023-06-10T03:38:13;101058.00;;;12.17;93.89
55733;BME280;41637;52.364;9.910;2023-06-10T03:40:40;101058.45;;;12.18;93.92
55733;BME280;41637;52.364;9.910;2023-06-10T03:43:06;101062.77;;;12.17;94.07
55733;BME280;41637;52.364;9.910;2023-06-10T03:45:33;101069.36;;;12.17;94.09
55733;BME280;41637;52.364;9.910;2023-06-10T03:48:01;101077.29;;;12.17;94.26
55733;BME280;41637;52.364;9.910;2023-06-10T03:50:30;101082.98;;;12.19;94.52
55733;BME280;41637;52.364;9.910;2023-06-10T03:52:57;101083.52;;;12.20;94.69
55733;BME280;41637;52.364;9.910;2023-06-10T03:55:24;101088.72;;;12.23;94.74
55733;BME280;41637;52.364;9.910;2023-06-10T03:57:51;101090.48;;;12.26;94.99
55733;BME280;41637;52.364;9.910;2023-06-10T04:00:18;101084.33;;;12.30;95.29
55733;BME280;41637;52.364;9.910;2023-06-10T04:02:47;101090.03;;;12.37;95.17
55733;BME280;41637;52.364;9.910;2023-06-10T04:05:19;101090.48;;;12.45;95.48
55733;BME280;41637;52.364;9.910;2023-06-10T04:07:48;101086.27;;;12.53;95.60
55733;BME280;41637;52.364;9.910;2023-06-10T04:10:15;101087.77;;;12.62;95.42
55733;BME280;41637;52.364;9.910;2023-06-10T04:12:41;101091.69;;;12.71;95.34
55733;BME280;41637;52.364;9.910;2023-06-10T04:15:08;101086.59;;;12.83;95.17
55733;BME280;41637;52.364;9.910;2023-06-10T04:17:36;101079.66;;;12.92;94.62
55733;BME280;41637;52.364;9.910;2023-06-10T04:20:03;101078.59;;;12.98;94.30
55733;BME280;41637;52.364;9.910;2023-06-10T04:22:32;101083.64;;;13.01;94.19
55733;BME280;41637;52.364;9.910;2023-06-10T04:24:59;101089.20;;;13.06;93.89
55733;BME280;41637;52.364;9.910;2023-06-10T04:27:25;101080.70;;;13.13;93.90
55733;BME280;41637;52.364;9.910;2023-06-10T04:29:52;101079.61;;;13.19;93.65
55733;BME280;41637;52.364;9.910;2023-06-10T04:32:19;101078.34;;;13.24;93.54
55733;BME280;41637;52.364;9.910;2023-06-10T04:34:45;101077.08;;;13.27;93.07
55733;BME280;41637;52.364;9.910;2023-06-10T04:37:12;101077.27;;;13.30;92.89
55733;BME280;41637;52.364;9.910;2023-06-10T04:39:38;101079.98;;;13.34;92.80
55733;BME280;41637;52.364;9.910;2023-06-10T04:42:05;101078.05;;;13.39;92.64
55733;BME280;41637;52.364;9.910;2023-06-10T04:44:32;101076.93;;;13.42;92.36
55733;BME280;41637;52.364;9.910;2023-06-10T04:46:58;101074.86;;;13.46;92.26
55733;BME280;41637;52.364;9.910;2023-06-10T04:49:25;101076.21;;;13.50;91.89
55733;BME280;41637;52.364;9.910;2023-06-10T04:51:52;101078.11;;;13.56;92.16
55733;BME280;41637;52.364;9.910;2023-06-10T04:54:18;101083.14;;;13.61;91.63
55733;BME280;41637;52.364;9.910;2023-06-10T04:56:44;101083.76;;;13.68;91.43
55733;BME280;41637;52.364;9.910;2023-06-10T04:59:11;101080.93;;;13.75;91.27
55733;BME280;41637;52.364;9.910;2023-06-10T05:01:37;101080.89;;;13.81;91.01
55733;BME280;41637;52.364;9.910;2023-06-10T05:04:04;101079.60;;;13.88;90.51
55733;BME280;41637;52.364;9.910;2023-06-10T05:06:31;101078.23;;;13.93;90.31
55733;BME280;41637;52.364;9.910;2023-06-10T05:08:57;101077.14;;;14.01;90.11
55733;BME280;41637;52.364;9.910;2023-06-10T05:11:24;101082.73;;;14.10;89.97
55733;BME280;41637;52.364;9.910;2023-06-10T05:13:50;101082.64;;;14.18;89.80
55733;BME280;41637;52.364;9.910;2023-06-10T05:16:17;101090.36;;;14.25;89.32
55733;BME280;41637;52.364;9.910;2023-06-10T05:18:44;101092.33;;;14.32;88.97
55733;BME280;41637;52.364;9.910;2023-06-10T05:21:10;101090.89;;;14.37;88.51
55733;BME280;41637;52.364;9.910;2023-06-10T05:23:37;101089.27;;;14.44;88.60
55733;BME280;41637;52.364;9.910;2023-06-10T05:26:04;101087.01;;;14.52;88.19
55733;BME280;41637;52.364;9.910;2023-06-10T05:28:30;101085.47;;;14.60;87.79
55733;BME280;41637;52.364;9.910;2023-06-10T05:30:57;101086.08;;;14.68;87.62
55733;BME280;41637;52.364;9.910;2023-06-10T05:33:23;101090.95;;;14.76;87.10
55733;BME280;41637;52.364;9.910;2023-06-10T05:35:50;101085.27;;;14.86;86.83
55733;BME280;41637;52.364;9.910;2023-06-10T05:38:16;101085.92;;;14.95;86.30
55733;BME280;41637;52.364;9.910;2023-06-10T05:40:43;101087.19;;;15.04;86.08
55733;BME280;41637;52.364;9.910;2023-06-10T05:43:09;101088.88;;;15.18;85.91
55733;BME280;41637;52.364;9.910;2023-06-10T05:45:37;101085.14;;;15.32;85.28
55733;BME280;41637;52.364;9.910;2023-06-10T05:48:04;101080.89;;;15.45;84.61
55733;BME280;41637;52.364;9.910;2023-06-10T05:50:31;101081.86;;;15.58;84.11
55733;BME280;41637;52.364;9.910;2023-06-10T05:53:01;101084.14;;;15.69;83.31
55733;BME280;41637;52.364;9.910;2023-06-10T05:55:27;101085.41;;;15.80;83.10
55733;BME280;41637;52.364;9.910;2023-06-10T05:58:00;101079.04;;;15.95;82.76
55733;BME280;41637;52.364;9.910;2023-06-10T06:00:27;101080.67;;;16.08;82.06
55733;BME280;41637;52.364;9.910;2023-06-10T06:02:54;101077.42;;;16.19;81.45
55733;BME280;41637;52.364;9.910;2023-06-10T06:05:21;101080.32;;;16.32;80.88
55733;BME280;41637;52.364;9.910;2023-06-10T06:07:47;101079.90;;;16.46;80.40
55733;BME280;41637;52.364;9.910;2023-06-10T06:10:16;101078.17;;;16.55;79.72
55733;BME280;41637;52.364;9.910;2023-06-10T06:12:44;101080.60;;;16.67;79.52
55733;BME280;41637;52.364;9.910;2023-06-10T06:15:11;101080.33;;;16.76;78.57
55733;BME280;41637;52.364;9.910;2023-06-10T06:17:38;101081.37;;;16.81;78.20
55733;BME280;41637;52.364;9.910;2023-06-10T06:20:05;101080.79;;;16.97;78.14
55733;BME280;41637;52.364;9.910;2023-06-10T06:22:32;101082.17;;;17.09;77.45
55733;BME280;41637;52.364;9.910;2023-06-10T06:24:58;101086.81;;;17.25;77.27
55733;BME280;41637;52.364;9.910;2023-06-10T06:27:25;101079.29;;;17.47;76.56
55733;BME280;41637;52.364;9.910;2023-06-10T06:29:52;101080.40;;;17.62;76.19
55733;BME280;41637;52.364;9.910;2023-06-10T06:32:19;101084.70;;;17.80;75.63
55733;BME280;41637;52.364;9.910;2023-06-10T06:34:45;101088.60;;;17.92;74.46
55733;BME280;41637;52.364;9.910;2023-06-10T06:37:12;101090.17;;;18.05;74.36
55733;BME280;41637;52.364;9.910;2023-06-10T06:39:38;101091.81;;;18.16;73.13
55733;BME280;41637;52.364;9.910;2023-06-10T06:42:05;101091.98;;;18.16;72.01
55733;BME280;41637;52.364;9.910;2023-06-10T06:44:32;101092.34;;;18.11;72.24
55733;BME280;41637;52.364;9.910;2023-06-10T06:46:58;101088.72;;;18.15;72.25
55733;BME280;41637;52.364;9.910;2023-06-10T06:49:25;101088.05;;;18.21;72.23
55733;BME280;41637;52.364;9.910;2023-06-10T06:51:51;101090.07;;;18.26;71.83
55733;BME280;41637;52.364;9.910;2023-06-10T06:54:19;101088.95;;;18.30;71.72
55733;BME280;41637;52.364;9.910;2023-06-10T06:56:45;101091.03;;;18.36;71.55
55733;BME280;41637;52.364;9.910;2023-06-10T06:59:12;101090.09;;;18.40;71.38
55733;BME280;41637;52.364;9.910;2023-06-10T07:01:40;101091.63;;;18.46;71.02
55733;BME280;41637;52.364;9.910;2023-06-10T07:04:06;101093.01;;;18.50;70.88
55733;BME280;41637;52.364;9.910;2023-06-10T07:06:33;101094.77;;;18.55;70.82
55733;BME280;41637;52.364;9.910;2023-06-10T07:09:04;101094.08;;;18.61;70.59
55733;BME280;41637;52.364;9.910;2023-06-10T07:11:31;101089.13;;;18.64;70.15
55733;BME280;41637;52.364;9.910;2023-06-10T07:13:57;101095.88;;;18.70;69.93
55733;BME280;41637;52.364;9.910;2023-06-10T07:16:24;101099.75;;;18.75;69.93
55733;BME280;41637;52.364;9.910;2023-06-10T07:18:50;101097.98;;;18.80;69.49
55733;BME280;41637;52.364;9.910;2023-06-10T07:21:16;101099.90;;;18.82;69.22
55733;BME280;41637;52.364;9.910;2023-06-10T07:23:43;101097.91;;;18.87;69.26
55733;BME280;41637;52.364;9.910;2023-06-10T07:26:11;101093.66;;;18.91;68.82
55733;BME280;41637;52.364;9.910;2023-06-10T07:28:40;101091.77;;;18.94;69.18
55733;BME280;41637;52.364;9.910;2023-06-10T07:31:08;101094.91;;;18.98;69.00
55733;BME280;41637;52.364;9.910;2023-06-10T07:33:34;101100.70;;;19.04;68.99
55733;BME280;41637;52.364;9.910;2023-06-10T07:36:01;101103.79;;;19.14;68.63
55733;BME280;41637;52.364;9.910;2023-06-10T07:38:27;101102.02;;;19.16;68.31
55733;BME280;41637;52.364;9.910;2023-06-10T07:40:54;101102.83;;;19.15;68.24
55733;BME280;41637;52.364;9.910;2023-06-10T07:43:20;101105.39;;;19.14;67.99
55733;BME280;41637;52.364;9.910;2023-06-10T07:45:46;101100.75;;;19.16;68.39
55733;BME280;41637;52.364;9.910;2023-06-10T07:48:13;101100.86;;;19.24;68.36
55733;BME280;41637;52.364;9.910;2023-06-10T07:50:40;101096.10;;;19.33;68.13
55733;BME280;41637;52.364;9.910;2023-06-10T07:53:06;101101.29;;;19.40;68.08
55733;BME280;41637;52.364;9.910;2023-06-10T07:55:33;101099.48;;;19.49;68.26
55733;BME280;41637;52.364;9.910;2023-06-10T07:57:59;101090.73;;;19.58;67.57
55733;BME280;41637;52.364;9.910;2023-06-10T08:00:26;101089.13;;;19.65;67.36
55733;BME280;41637;52.364;9.910;2023-06-10T08:02:52;101093.90;;;19.72;66.79
55733;BME280;41637;52.364;9.910;2023-06-10T08:05:19;101092.88;;;19.79;66.93
55733;BME280;41637;52.364;9.910;2023-06-10T08:07:47;101090.72;;;19.89;67.06
55733;BME280;41637;52.364;9.910;2023-06-10T08:10:13;101087.21;;;20.01;66.63
55733;BME280;41637;52.364;9.910;2023-06-10T08:12:40;101088.31;;;20.11;66.35
55733;BME280;41637;52.364;9.910;2023-06-10T08:15:07;101086.50;;;20.18;65.94
55733;BME280;41637;52.364;9.910;2023-06-10T08:17:34;101079.23;;;20.26;65.81
55733;BME280;41637;52.364;9.910;2023-06-10T08:20:01;101080.02;;;20.34;65.44
55733;BME280;41637;52.364;9.910;2023-06-10T08:22:28;101078.77;;;20.40;64.40
55733;BME280;41637;52.364;9.910;2023-06-10T08:24:55;101084.52;;;20.46;64.67
55733;BME280;41637;52.364;9.910;2023-06-10T08:27:22;101080.53;;;20.58;64.66
55733;BME280;41637;52.364;9.910;2023-06-10T08:29:48;101077.75;;;20.72;64.70
55733;BME280;41637;52.364;9.910;2023-06-10T08:32:15;101076.40;;;20.86;63.82
55733;BME280;41637;52.364;9.910;2023-06-10T08:34:42;101076.61;;;20.95;63.44
55733;BME280;41637;52.364;9.910;2023-06-10T08:37:08;101068.31;;;20.97;62.87
55733;BME280;41637;52.364;9.910;2023-06-10T08:39:34;101070.11;;;21.08;63.35
55733;BME280;41637;52.364;9.910;2023-06-10T08:44:46;101067.14;;;21.35;62.04
55733;BME280;41637;52.364;9.910;2023-06-10T08:47:14;101066.00;;;21.42;60.96
55733;BME280;41637;52.364;9.910;2023-06-10T08:49:45;101067.61;;;21.51;61.16
55733;BME280;41637;52.364;9.910;2023-06-10T08:52:20;101068.30;;;21.67;61.22
55733;BME280;41637;52.364;9.910;2023-06-10T08:54:57;101063.86;;;21.83;60.72
55733;BME280;41637;52.364;9.910;2023-06-10T08:57:26;101065.36;;;22.03;60.53
55733;BME280;41637;52.364;9.910;2023-06-10T08:59:53;101062.27;;;22.19;59.75
55733;BME280;41637;52.364;9.910;2023-06-10T09:02:21;101060.23;;;22.32;59.24
55733;BME280;41637;52.364;9.910;2023-06-10T09:04:49;101060.30;;;22.46;59.45
55733;BME280;41637;52.364;9.910;2023-06-10T09:07:16;101064.93;;;22.65;59.11
55733;BME280;41637;52.364;9.910;2023-06-10T09:09:43;101065.45;;;22.82;58.27
55733;BME280;41637;52.364;9.910;2023-06-10T09:12:14;101060.81;;;22.99;57.92
55733;BME280;41637;52.364;9.910;2023-06-10T09:14:43;101062.15;;;23.18;56.98
55733;BME280;41637;52.364;9.910;2023-06-10T09:17:10;101062.11;;;23.30;57.13
55733;BME280;41637;52.364;9.910;2023-06-10T09:19:38;101061.45;;;23.43;56.19
55733;BME280;41637;52.364;9.910;2023-06-10T09:22:06;101056.73;;;23.56;55.39
55733;BME280;41637;52.364;9.910;2023-06-10T09:24:32;101055.43;;;23.70;55.25
55733;BME280;41637;52.364;9.910;2023-06-10T09:27:07;101055.48;;;23.86;55.11
55733;BME280;41637;52.364;9.910;2023-06-10T09:29:47;101055.13;;;23.98;54.20
55733;BME280;41637;52.364;9.910;2023-06-10T09:32:15;101053.68;;;24.07;53.40
55733;BME280;41637;52.364;9.910;2023-06-10T09:34:43;101054.05;;;24.17;54.08
55733;BME280;41637;52.364;9.910;2023-06-10T09:37:10;101049.92;;;24.34;53.37
55733;BME280;41637;52.364;9.910;2023-06-10T09:39:39;101051.54;;;24.46;52.58
55733;BME280;41637;52.364;9.910;2023-06-10T09:42:26;101048.09;;;24.59;52.87
55733;BME280;41637;52.364;9.910;2023-06-10T09:44:52;101048.80;;;24.75;52.39
55733;BME280;41637;52.364;9.910;2023-06-10T09:47:22;101044.91;;;24.88;52.23
55733;BME280;41637;52.364;9.910;2023-06-10T09:49:49;101047.20;;;24.99;51.24
55733;BME280;41637;52.364;9.910;2023-06-10T09:52:24;101046.07;;;25.10;51.98
55733;BME280;41637;52.364;9.910;2023-06-10T09:54:52;101042.07;;;25.21;51.49
55733;BME280;41637;52.364;9.910;2023-06-10T09:57:20;101040.31;;;25.29;51.23
55733;BME280;41637;52.364;9.910;2023-06-10T09:59:47;101043.35;;;25.39;51.00
55733;BME280;41637;52.364;9.910;2023-06-10T10:02:16;101042.09;;;25.52;51.96
55733;BME280;41637;52.364;9.910;2023-06-10T10:04:44;101047.13;;;25.65;50.71
55733;BME280;41637;52.364;9.910;2023-06-10T10:07:11;101040.64;;;25.72;50.60
55733;BME280;41637;52.364;9.910;2023-06-10T10:09:39;101043.16;;;25.84;50.52
55733;BME280;41637;52.364;9.910;2023-06-10T10:12:13;101044.95;;;25.95;50.20
55733;BME280;41637;52.364;9.910;2023-06-10T10:14:46;101047.56;;;26.01;49.78
55733;BME280;41637;52.364;9.910;2023-06-10T10:17:16;101044.05;;;26.09;49.81
55733;BME280;41637;52.364;9.910;2023-06-10T10:19:46;101041.39;;;26.16;49.89
55733;BME280;41637;52.364;9.910;2023-06-10T10:22:25;101044.91;;;26.26;49.95
55733;BME280;41637;52.364;9.910;2023-06-10T10:24:56;101044.10;;;26.42;50.38
55733;BME280;41637;52.364;9.910;2023-06-10T10:27:28;101043.95;;;26.52;48.96
55733;BME280;41637;52.364;9.910;2023-06-10T10:29:55;101043.86;;;26.60;49.13
55733;BME280;41637;52.364;9.910;2023-06-10T10:32:38;101042.42;;;26.70;49.27
55733;BME280;41637;52.364;9.910;2023-06-10T10:35:16;101046.71;;;26.79;48.98
55733;BME280;41637;52.364;9.910;2023-06-10T10:37:43;101046.30;;;26.89;49.04
55733;BME280;41637;52.364;9.910;2023-06-10T10:40:11;101045.74;;;26.95;48.39
55733;BME280;41637;52.364;9.910;2023-06-10T10:42:38;101046.71;;;26.99;48.48
55733;BME280;41637;52.364;9.910;2023-06-10T10:45:06;101046.59;;;27.03;48.45
55733;BME280;41637;52.364;9.910;2023-06-10T10:47:36;101043.37;;;27.10;48.88
55733;BME280;41637;52.364;9.910;2023-06-10T10:50:14;101042.73;;;27.18;48.36
55733;BME280;41637;52.364;9.910;2023-06-10T10:52:54;101041.48;;;27.25;48.46
55733;BME280;41637;52.364;9.910;2023-06-10T10:55:24;101035.13;;;27.35;48.47
55733;BME280;41637;52.364;9.910;2023-06-10T10:57:55;101036.05;;;27.48;47.86
55733;BME280;41637;52.364;9.910;2023-06-10T11:03:03;101033.26;;;27.61;47.24
55733;BME280;41637;52.364;9.910;2023-06-10T11:05:41;101031.48;;;27.75;46.84
55733;BME280;41637;52.364;9.910;2023-06-10T11:08:59;101032.58;;;27.83;46.07
55733;BME280;41637;52.364;9.910;2023-06-10T11:11:01;101023.70;;;27.93;45.71
55733;BME280;41637;52.364;9.910;2023-06-10T11:13:57;101016.48;;;28.04;46.14
55733;BME280;41637;52.364;9.910;2023-06-10T11:16:25;101018.20;;;28.20;46.16
55733;BME280;41637;52.364;9.910;2023-06-10T11:18:56;101017.83;;;28.26;45.10
55733;BME280;41637;52.364;9.910;2023-06-10T11:21:24;101017.00;;;28.33;45.17
55733;BME280;41637;52.364;9.910;2023-06-10T11:23:58;101014.55;;;28.45;44.11
55733;BME280;41637;52.364;9.910;2023-06-10T11:36:25;101005.35;;;29.00;43.69
55733;BME280;41637;52.364;9.910;2023-06-10T11:39:00;101005.98;;;29.15;42.19
55733;BME280;41637;52.364;9.910;2023-06-10T11:41:28;101005.77;;;29.22;41.79
55733;BME280;41637;52.364;9.910;2023-06-10T11:43:56;100999.45;;;29.31;41.58
55733;BME280;41637;52.364;9.910;2023-06-10T11:46:23;100999.55;;;29.43;41.42
55733;BME280;41637;52.364;9.910;2023-06-10T11:48:54;100999.83;;;29.55;41.51
55733;BME280;41637;52.364;9.910;2023-06-10T11:51:21;100994.67;;;29.71;41.83
55733;BME280;41637;52.364;9.910;2023-06-10T11:53:48;100991.95;;;29.93;41.02
55733;BME280;41637;52.364;9.910;2023-06-10T11:56:23;100992.20;;;30.20;41.47
55733;BME280;41637;52.364;9.910;2023-06-10T12:01:38;100992.88;;;31.06;38.94
55733;BME280;41637;52.364;9.910;2023-06-10T12:04:11;100989.74;;;31.53;37.92
55733;BME280;41637;52.364;9.910;2023-06-10T12:06:40;100984.08;;;31.91;36.49
55733;BME280;41637;52.364;9.910;2023-06-10T12:09:33;100981.09;;;32.28;36.06
55733;BME280;41637;52.364;9.910;2023-06-10T12:12:02;100978.41;;;32.71;36.08
55733;BME280;41637;52.364;9.910;2023-06-10T12:14:52;100977.50;;;33.09;35.19
55733;BME280;41637;52.364;9.910;2023-06-10T12:17:43;100978.14;;;33.50;33.78
55733;BME280;41637;52.364;9.910;2023-06-10T12:20:23;100976.45;;;33.88;32.52
55733;BME280;41637;52.364;9.910;2023-06-10T12:22:50;100977.02;;;34.22;32.48
55733;BME280;41637;52.364;9.910;2023-06-10T12:25:17;100977.03;;;34.56;31.85
55733;BME280;41637;52.364;9.910;2023-06-10T12:27:53;100977.80;;;34.94;31.72
55733;BME280;41637;52.364;9.910;2023-06-10T12:30:21;100981.15;;;35.36;30.92
55733;BME280;41637;52.364;9.910;2023-06-10T12:32:49;100972.27;;;35.69;30.02
55733;BME280;41637;52.364;9.910;2023-06-10T12:35:18;100969.38;;;36.11;30.23
55733;BME280;41637;52.364;9.910;2023-06-10T12:40:32;100956.92;;;36.93;28.59
55733;BME280;41637;52.364;9.910;2023-06-10T12:42:59;100962.30;;;37.22;27.20
55733;BME280;41637;52.364;9.910;2023-06-10T12:45:27;100958.96;;;37.43;27.21
55733;BME280;41637;52.364;9.910;2023-06-10T12:50:40;100952.20;;;37.80;26.29
55733;BME280;41637;52.364;9.910;2023-06-10T12:53:07;100949.08;;;37.97;26.45
55733;BME280;41637;52.364;9.910;2023-06-10T12:55:34;100948.91;;;38.23;26.20
55733;BME280;41637;52.364;9.910;2023-06-10T12:58:01;100949.52;;;38.48;25.59
55733;BME280;41637;52.364;9.910;2023-06-10T13:00:28;100945.23;;;38.61;24.58
55733;BME280;41637;52.364;9.910;2023-06-10T13:02:57;100943.19;;;38.65;24.69
55733;BME280;41637;52.364;9.910;2023-06-10T13:05:24;100941.00;;;38.80;25.00
55733;BME280;41637;52.364;9.910;2023-06-10T13:07:51;100942.58;;;39.03;24.71
55733;BME280;41637;52.364;9.910;2023-06-10T13:10:18;100938.60;;;39.17;23.93
55733;BME280;41637;52.364;9.910;2023-06-10T13:12:47;100944.22;;;39.33;24.62
55733;BME280;41637;52.364;9.910;2023-06-10T13:15:14;100949.81;;;39.53;24.33
55733;BME280;41637;52.364;9.910;2023-06-10T13:17:42;100945.52;;;39.57;24.08
55733;BME280;41637;52.364;9.910;2023-06-10T13:20:09;100946.21;;;39.68;24.12